createdAt,value
2019-04-10T00:02:19.633Z,90.90
2019-04-10T00:04:48.091Z,90.90
2019-04-10T00:07:18.348Z,91.10
2019-04-10T00:09:47.493Z,91.10
2019-04-10T00:12:16.109Z,91.20
2019-04-10T00:14:44.984Z,91.10
2019-04-10T00:17:13.652Z,91.30
2019-04-10T00:19:42.085Z,91.30
2019-04-10T00:22:11.666Z,91.30
2019-04-10T00:24:40.327Z,91.50
2019-04-10T00:27:09.044Z,91.60
2019-04-10T00:29:38.365Z,91.50
2019-04-10T00:32:07.786Z,91.60
2019-04-10T00:34:36.412Z,91.60
2019-04-10T00:37:05.771Z,92.00
2019-04-10T00:39:34.867Z,91.60
2019-04-10T00:42:03.505Z,91.40
2019-04-10T00:44:32.007Z,91.40
2019-04-10T00:47:00.451Z,91.50
2019-04-10T00:49:29.415Z,91.40
2019-04-10T00:51:58.263Z,91.40
2019-04-10T00:54:26.797Z,91.50
2019-04-10T00:56:55.217Z,91.70
2019-04-10T00:59:24.157Z,91.80
2019-04-10T01:01:52.693Z,91.90
2019-04-10T01:04:21.124Z,91.70
2019-04-10T01:06:50.442Z,91.80
2019-04-10T01:09:19.474Z,91.60
2019-04-10T01:11:48.100Z,91.40
2019-04-10T01:14:16.535Z,91.30
2019-04-10T01:16:44.973Z,91.50
2019-04-10T01:19:13.407Z,91.60
2019-04-10T01:21:42.237Z,91.60
2019-04-10T01:24:11.099Z,91.90
2019-04-10T01:26:39.660Z,91.90
2019-04-10T01:29:09.194Z,92.00
2019-04-10T01:31:37.798Z,91.90
2019-04-10T01:34:07.310Z,91.80
2019-04-10T01:36:36.054Z,92.20
2019-04-10T01:39:08.675Z,92.40
2019-04-10T01:41:37.208Z,92.10
2019-04-10T01:44:05.738Z,92.10
2019-04-10T01:46:35.809Z,92.20
2019-04-10T01:49:05.156Z,92.20
2019-04-10T01:51:33.768Z,92.20
2019-04-10T01:54:02.709Z,92.30
2019-04-10T01:56:33.708Z,92.30
2019-04-10T01:59:01.483Z,92.30
2019-04-10T02:01:32.561Z,92.30
2019-04-10T02:04:01.280Z,92.40
2019-04-10T02:06:29.717Z,92.30
2019-04-10T02:08:58.373Z,92.30
2019-04-10T02:11:27.982Z,92.10
2019-04-10T02:13:56.844Z,92.20
2019-04-10T02:16:25.618Z,92.10
2019-04-10T02:18:54.152Z,92.10
2019-04-10T02:21:23.452Z,92.10
2019-04-10T02:23:52.410Z,92.50
2019-04-10T02:26:21.321Z,92.10
2019-04-10T02:28:51.266Z,92.10
2019-04-10T02:31:21.540Z,92.30
2019-04-10T02:33:51.615Z,92.40
2019-04-10T02:36:21.295Z,93.00
2019-04-10T02:39:03.319Z,92.40
2019-04-10T02:41:21.481Z,92.40
2019-04-10T02:43:51.271Z,92.70
2019-04-10T02:46:19.913Z,92.60
2019-04-10T02:48:49.894Z,92.80
2019-04-10T02:51:19.970Z,92.40
2019-04-10T02:53:50.197Z,92.40
2019-04-10T02:56:20.709Z,92.40
2019-04-10T02:59:09.425Z,92.40
2019-04-10T03:01:39.792Z,92.30
2019-04-10T03:04:09.778Z,92.40
2019-04-10T03:06:39.573Z,92.10
2019-04-10T03:09:26.139Z,92.10
2019-04-10T03:11:39.625Z,91.90
2019-04-10T03:14:08.278Z,91.80
2019-04-10T03:16:37.607Z,91.80
2019-04-10T03:19:06.121Z,91.80
2019-04-10T03:21:35.430Z,92.10
2019-04-10T03:24:10.332Z,91.60
2019-04-10T03:26:39.485Z,91.50
2019-04-10T03:29:07.971Z,91.50
2019-04-10T03:31:36.870Z,91.50
2019-04-10T03:36:53.801Z,91.50
2019-04-10T03:39:22.304Z,91.50
2019-04-10T03:41:50.746Z,91.60
2019-04-10T03:44:19.175Z,91.80
2019-04-10T03:46:47.600Z,91.60
2019-04-10T03:49:16.053Z,92.10
2019-04-10T03:51:44.997Z,91.80
2019-04-10T03:54:13.597Z,91.90
2019-04-10T03:56:42.318Z,91.90
2019-04-10T03:59:11.756Z,91.90
2019-04-10T04:01:40.945Z,92.10
2019-04-10T04:04:09.568Z,92.00
2019-04-10T04:06:38.012Z,92.20
2019-04-10T04:09:10.898Z,92.20
2019-04-10T04:11:37.836Z,92.20
2019-04-10T04:14:08.207Z,92.40
2019-04-10T04:16:37.330Z,92.50
2019-04-10T04:19:05.987Z,92.70
2019-04-10T04:21:34.705Z,92.60
2019-04-10T04:24:03.629Z,92.80
2019-04-10T04:26:32.230Z,92.70
2019-04-10T04:29:00.676Z,92.70
2019-04-10T04:31:29.212Z,92.70
2019-04-10T04:34:16.968Z,92.80
2019-04-10T04:36:45.399Z,92.80
2019-04-10T04:39:21.775Z,94.20
2019-04-10T04:41:44.334Z,94.70
2019-04-10T04:44:12.908Z,94.60
2019-04-10T04:46:41.337Z,94.50
2019-04-10T04:52:05.058Z,93.70
2019-04-10T04:54:33.512Z,93.70
2019-04-10T04:57:01.940Z,93.70
2019-04-10T04:59:30.395Z,93.60
2019-04-10T05:01:58.876Z,93.30
2019-04-10T05:04:27.307Z,93.30
2019-04-10T05:06:55.992Z,93.10
2019-04-10T05:09:31.101Z,93.40
2019-04-10T05:11:55.121Z,93.60
2019-04-10T05:14:23.827Z,93.60
2019-04-10T05:16:52.293Z,93.50
2019-04-10T05:19:40.545Z,93.40
2019-04-10T05:22:10.173Z,93.60
2019-04-10T05:24:38.734Z,93.60
2019-04-10T05:27:07.798Z,93.40
2019-04-10T05:29:36.655Z,93.20
2019-04-10T05:32:05.197Z,92.90
2019-04-10T05:34:33.882Z,92.90
2019-04-10T05:37:03.131Z,92.90
2019-04-10T05:39:40.549Z,93.00
2019-04-10T05:42:02.411Z,92.70
2019-04-10T05:44:31.886Z,92.50
2019-04-10T05:47:01.188Z,91.80
2019-04-10T05:49:29.745Z,91.50
2019-04-10T05:51:59.248Z,91.50
2019-04-10T05:54:28.013Z,91.30
2019-04-10T05:56:56.544Z,91.10
2019-04-10T05:59:25.000Z,90.80
2019-04-10T06:01:53.436Z,90.60
2019-04-10T06:04:22.134Z,90.50
2019-04-10T06:06:54.838Z,90.30
2019-04-10T06:09:23.455Z,90.30
2019-04-10T06:11:53.093Z,90.40
2019-04-10T06:14:22.059Z,90.20
2019-04-10T06:16:51.054Z,90.10
2019-04-10T06:19:21.923Z,89.80
2019-04-10T06:21:50.402Z,89.40
2019-04-10T06:24:18.945Z,89.50
2019-04-10T06:26:47.902Z,89.00
2019-04-10T06:29:17.085Z,88.80
2019-04-10T06:31:45.731Z,87.80
2019-04-10T06:34:16.160Z,87.40
2019-04-10T06:36:45.695Z,88.20
2019-04-10T06:39:14.373Z,86.90
2019-04-10T06:41:43.146Z,86.40
2019-04-10T06:44:11.888Z,86.40
2019-04-10T06:46:42.754Z,85.70
2019-04-10T06:49:12.201Z,85.20
2019-04-10T06:51:41.104Z,84.40
2019-04-10T06:54:11.463Z,84.40
2019-04-10T06:56:40.964Z,85.00
2019-04-10T06:59:09.599Z,84.70
2019-04-10T07:01:45.012Z,84.70
2019-04-10T07:04:09.771Z,84.10
2019-04-10T07:06:49.895Z,83.70
2019-04-10T07:09:11.651Z,83.80
2019-04-10T07:11:40.248Z,83.00
2019-04-10T07:14:12.609Z,82.50
2019-04-10T07:16:40.014Z,80.80
2019-04-10T07:19:11.495Z,80.20
2019-04-10T07:21:39.067Z,80.00
2019-04-10T07:24:09.506Z,79.60
2019-04-10T07:26:41.681Z,78.10
2019-04-10T07:29:08.822Z,78.20
2019-04-10T07:31:38.276Z,78.10
2019-04-10T07:34:08.833Z,76.20
2019-04-10T07:36:41.156Z,75.60
2019-04-10T07:39:07.906Z,75.10
2019-04-10T07:41:37.628Z,74.80
2019-04-10T07:44:06.322Z,74.20
2019-04-10T07:46:34.792Z,74.50
2019-04-10T07:49:04.148Z,74.30
2019-04-10T07:51:32.584Z,74.50
2019-04-10T07:54:01.930Z,74.00
2019-04-10T07:56:31.209Z,74.40
2019-04-10T07:59:00.556Z,74.20
2019-04-10T08:01:29.250Z,73.50
2019-04-10T08:03:57.806Z,72.50
2019-04-10T08:06:26.354Z,72.00
2019-04-10T08:08:55.503Z,70.90
2019-04-10T08:11:24.128Z,86.10
2019-04-10T08:13:53.261Z,80.80
2019-04-10T08:16:23.240Z,75.70
2019-04-10T08:18:52.164Z,70.30
2019-04-10T08:21:21.778Z,68.70
2019-04-10T08:23:51.474Z,68.80
2019-04-10T08:26:21.292Z,68.30
2019-04-10T08:28:49.830Z,68.80
2019-04-10T08:31:19.049Z,68.20
2019-04-10T08:33:47.581Z,67.60
2019-04-10T08:36:16.139Z,66.70
2019-04-10T08:38:44.622Z,66.30
2019-04-10T08:41:13.055Z,65.30
2019-04-10T08:43:41.723Z,65.30
2019-04-10T08:46:10.880Z,64.60
2019-04-10T08:48:39.436Z,64.50
2019-04-10T08:51:08.681Z,63.70
2019-04-10T08:53:38.288Z,63.90
2019-04-10T08:56:06.981Z,63.50
2019-04-10T08:58:35.420Z,63.10
2019-04-10T09:01:05.020Z,63.50
2019-04-10T09:03:33.546Z,63.40
2019-04-10T09:06:02.891Z,63.10
2019-04-10T09:08:31.588Z,62.80
2019-04-10T09:11:00.975Z,62.30
2019-04-10T09:13:30.576Z,62.20
2019-04-10T09:16:00.348Z,61.40
2019-04-10T09:18:29.491Z,61.10
2019-04-10T09:20:59.293Z,60.20
2019-04-10T09:23:37.925Z,59.00
2019-04-10T09:25:58.043Z,58.30
2019-04-10T09:28:26.853Z,58.40
2019-04-10T09:30:55.390Z,57.30
2019-04-10T09:33:27.568Z,57.10
2019-04-10T09:35:55.055Z,56.70
2019-04-10T09:38:23.780Z,57.40
2019-04-10T09:40:53.226Z,56.10
2019-04-10T09:43:21.722Z,56.00
2019-04-10T09:45:51.431Z,55.40
2019-04-10T09:48:20.008Z,55.40
2019-04-10T09:50:48.454Z,54.30
2019-04-10T09:53:17.150Z,53.40
2019-04-10T09:55:46.828Z,52.60
2019-04-10T09:58:15.364Z,53.10
2019-04-10T10:00:43.839Z,52.50
2019-04-10T10:03:12.321Z,51.90
2019-04-10T10:05:40.759Z,51.70
2019-04-10T10:08:09.234Z,51.30
2019-04-10T10:10:39.841Z,50.20
2019-04-10T10:15:37.650Z,50.70
2019-04-10T10:18:06.231Z,49.80
2019-04-10T10:20:35.595Z,49.20
2019-04-10T10:23:05.326Z,48.90
2019-04-10T10:25:33.943Z,48.70
2019-04-10T10:28:02.872Z,48.40
2019-04-10T10:30:31.672Z,48.40
2019-04-10T10:33:00.106Z,47.40
2019-04-10T10:35:29.325Z,47.60
2019-04-10T10:37:58.845Z,47.00
2019-04-10T10:40:27.736Z,46.30
2019-04-10T10:42:56.333Z,45.50
2019-04-10T10:45:25.030Z,45.60
2019-04-10T10:47:54.672Z,46.30
2019-04-10T10:50:23.626Z,46.00
2019-04-10T10:52:52.237Z,45.60
2019-04-10T10:55:21.285Z,44.90
2019-04-10T10:57:49.912Z,45.10
2019-04-10T11:00:19.284Z,45.20
2019-04-10T11:02:47.728Z,44.50
2019-04-10T11:05:16.967Z,43.80
2019-04-10T11:07:47.008Z,42.80
2019-04-10T11:10:22.064Z,42.50
2019-04-10T11:12:46.964Z,42.80
2019-04-10T11:15:16.248Z,42.60
2019-04-10T11:17:46.057Z,41.90
2019-04-10T11:20:15.280Z,41.50
2019-04-10T11:22:44.686Z,40.50
2019-04-10T11:25:13.617Z,39.80
2019-04-10T11:27:42.497Z,39.20
2019-04-10T11:30:12.520Z,39.10
2019-04-10T11:32:42.242Z,39.50
2019-04-10T11:35:11.191Z,39.20
2019-04-10T11:37:44.410Z,39.60
2019-04-10T11:40:12.194Z,39.30
2019-04-10T11:42:40.531Z,39.60
2019-04-10T11:45:10.728Z,38.80
2019-04-10T11:47:39.586Z,39.20
2019-04-10T11:50:13.564Z,39.30
2019-04-10T11:52:44.739Z,38.40
2019-04-10T11:55:13.731Z,38.00
2019-04-10T11:57:42.137Z,36.60
2019-04-10T12:00:15.201Z,37.30
2019-04-10T12:02:43.976Z,37.10
2019-04-10T12:05:18.393Z,37.30
2019-04-10T12:08:09.574Z,37.40
2019-04-10T12:12:43.802Z,36.40
2019-04-10T12:15:12.357Z,35.40
2019-04-10T12:17:42.992Z,34.80
2019-04-10T12:20:11.672Z,35.50
2019-04-10T12:22:40.689Z,34.90
2019-04-10T12:25:10.233Z,33.90
2019-04-10T12:27:39.076Z,32.10
2019-04-10T12:30:11.505Z,31.30
2019-04-10T12:32:40.985Z,30.30
2019-04-10T12:35:10.854Z,28.80
2019-04-10T12:37:39.535Z,28.50
2019-04-10T12:40:09.759Z,27.80
2019-04-10T12:42:38.800Z,27.50
2019-04-10T12:45:08.270Z,25.90
2019-04-10T12:47:37.710Z,25.70
2019-04-10T12:50:09.423Z,25.40
2019-04-10T12:52:38.779Z,23.70
2019-04-10T12:55:08.119Z,23.80
2019-04-10T12:57:37.066Z,23.90
2019-04-10T13:00:11.711Z,24.00
2019-04-10T13:02:40.772Z,23.80
2019-04-10T13:05:11.249Z,23.20
2019-04-10T13:07:39.996Z,22.90
2019-04-10T13:10:08.837Z,23.10
2019-04-10T13:12:37.665Z,22.90
2019-04-10T13:15:10.939Z,22.80
2019-04-10T13:17:40.673Z,21.90
2019-04-10T13:20:11.464Z,21.00
2019-04-10T13:22:40.187Z,21.50
2019-04-10T13:25:10.280Z,21.00
2019-04-10T13:27:39.063Z,22.20
2019-04-10T13:30:11.664Z,22.00
2019-04-10T13:32:40.454Z,22.00
2019-04-10T13:35:10.203Z,21.60
2019-04-10T13:37:38.763Z,21.40
2019-04-10T13:40:07.967Z,20.80
2019-04-10T13:42:37.160Z,19.80
2019-04-10T13:45:07.948Z,19.80
2019-04-10T13:47:36.613Z,19.10
2019-04-10T13:50:09.192Z,18.60
2019-04-10T13:52:40.452Z,18.00
2019-04-10T13:55:10.202Z,18.60
2019-04-10T13:57:39.281Z,18.70
2019-04-10T14:00:11.294Z,19.10
2019-04-10T14:02:39.932Z,20.10
2019-04-10T14:05:11.505Z,19.20
2019-04-10T14:07:40.353Z,18.60
2019-04-10T14:10:10.487Z,18.10
2019-04-10T14:12:39.132Z,17.50
2019-04-10T14:15:08.113Z,16.80
2019-04-10T14:17:37.571Z,16.50
2019-04-10T14:20:06.939Z,17.70
2019-04-10T14:22:37.947Z,17.80
2019-04-10T14:25:09.486Z,17.30
2019-04-10T14:27:38.517Z,18.40
2019-04-10T14:30:11.198Z,17.30
2019-04-10T14:32:39.946Z,17.10
2019-04-10T14:35:09.863Z,16.80
2019-04-10T14:37:38.478Z,17.20
2019-04-10T14:40:09.025Z,17.20
2019-04-10T14:42:38.356Z,17.40
2019-04-10T14:45:07.602Z,17.30
2019-04-10T14:47:36.215Z,17.10
2019-04-10T14:50:05.907Z,17.10
2019-04-10T14:52:34.991Z,17.60
2019-04-10T14:55:04.034Z,17.80
2019-04-10T14:57:32.842Z,17.10
2019-04-10T15:00:01.364Z,17.50
2019-04-10T15:02:30.727Z,17.00
2019-04-10T15:04:59.553Z,17.40
2019-04-10T15:07:28.976Z,18.00
2019-04-10T15:09:57.498Z,18.80
2019-04-10T15:12:25.935Z,19.50
2019-04-10T15:14:54.438Z,19.00
2019-04-10T15:17:23.139Z,18.50
2019-04-10T15:19:52.608Z,18.50
2019-04-10T15:22:21.919Z,18.10
2019-04-10T15:24:50.355Z,18.10
2019-04-10T15:27:19.496Z,17.60
2019-04-10T15:29:49.008Z,17.30
2019-04-10T15:32:17.725Z,17.80
2019-04-10T15:34:46.159Z,18.20
2019-04-10T15:37:15.203Z,18.20
2019-04-10T15:39:44.813Z,18.90
2019-04-10T15:42:14.226Z,20.10
2019-04-10T15:44:42.842Z,21.50
2019-04-10T15:47:18.297Z,22.30
2019-04-10T15:49:41.451Z,24.00
2019-04-10T15:52:10.098Z,24.30
2019-04-10T15:54:38.607Z,24.10
2019-04-10T15:57:07.105Z,23.20
2019-04-10T15:59:36.556Z,22.50
2019-04-10T16:02:05.698Z,22.50
2019-04-10T16:04:34.268Z,23.10
2019-04-10T16:07:02.780Z,23.80
2019-04-10T16:09:43.706Z,24.00
2019-04-10T16:12:03.352Z,24.50
2019-04-10T16:14:32.961Z,24.90
2019-04-10T16:17:09.272Z,25.40
2019-04-10T16:19:39.340Z,26.40
2019-04-10T16:22:09.495Z,26.90
2019-04-10T16:24:38.832Z,27.60
2019-04-10T16:27:07.632Z,27.70
2019-04-10T16:29:36.503Z,27.60
2019-04-10T16:32:06.395Z,27.20
2019-04-10T16:34:34.812Z,27.20
2019-04-10T16:37:03.252Z,27.80
2019-04-10T16:39:31.692Z,28.20
2019-04-10T16:42:00.135Z,28.60
2019-04-10T16:44:28.963Z,29.20
2019-04-10T16:46:57.515Z,29.30
2019-04-10T16:49:25.936Z,29.90
2019-04-10T16:51:54.508Z,31.00
2019-04-10T16:54:22.992Z,32.10
2019-04-10T16:56:51.432Z,32.60
2019-04-10T16:59:19.886Z,33.00
2019-04-10T17:01:48.311Z,34.10
2019-04-10T17:04:16.843Z,33.80
2019-04-10T17:06:46.312Z,34.00
2019-04-10T17:09:16.610Z,34.50
2019-04-10T17:11:45.251Z,34.50
2019-04-10T17:14:33.236Z,34.90
2019-04-10T17:17:02.153Z,35.40
2019-04-10T17:19:31.906Z,35.90
2019-04-10T17:22:00.927Z,36.10
2019-04-10T17:24:29.406Z,36.60
2019-04-10T17:26:59.255Z,37.10
2019-04-10T17:29:27.800Z,37.20
2019-04-10T17:31:57.111Z,37.70
2019-04-10T17:34:25.899Z,38.10
2019-04-10T17:36:57.033Z,38.70
2019-04-10T17:39:27.059Z,39.30
2019-04-10T17:41:55.896Z,39.90
2019-04-10T17:44:25.597Z,40.20
2019-04-10T17:46:54.145Z,40.40
2019-04-10T17:49:23.417Z,40.70
2019-04-10T17:51:52.360Z,40.90
2019-04-10T17:54:20.897Z,41.20
2019-04-10T17:56:50.564Z,41.20
2019-04-10T17:59:38.580Z,41.60
2019-04-10T18:02:09.543Z,41.70
2019-04-10T18:04:38.161Z,42.60
2019-04-10T18:07:06.606Z,43.10
2019-04-10T18:09:35.339Z,43.60
2019-04-10T18:12:04.313Z,43.80
2019-04-10T18:14:36.344Z,44.30
2019-04-10T18:17:03.045Z,44.90
2019-04-10T18:19:32.385Z,45.60
2019-04-10T18:22:01.006Z,46.10
2019-04-10T18:24:30.416Z,46.20
2019-04-10T18:27:00.022Z,46.60
2019-04-10T18:29:29.161Z,46.70
2019-04-10T18:32:00.118Z,47.00
2019-04-10T18:34:27.744Z,47.30
2019-04-10T18:36:56.536Z,47.60
2019-04-10T18:39:26.138Z,47.30
2019-04-10T18:41:54.669Z,47.90
2019-04-10T18:44:23.121Z,47.90
2019-04-10T18:46:52.212Z,48.90
2019-04-10T18:49:21.118Z,48.70
2019-04-10T18:51:50.040Z,48.80
2019-04-10T18:54:37.960Z,49.20
2019-04-10T18:57:07.386Z,49.20
2019-04-10T18:59:49.131Z,49.50
2019-04-10T19:02:25.509Z,49.70
2019-04-10T19:05:05.606Z,50.10
2019-04-10T19:07:34.341Z,49.90
2019-04-10T19:10:04.211Z,50.50
2019-04-10T19:12:32.920Z,50.80
2019-04-10T19:15:01.351Z,50.90
2019-04-10T19:17:30.916Z,51.00
2019-04-10T19:19:59.595Z,51.10
2019-04-10T19:22:28.535Z,51.60
2019-04-10T19:24:57.059Z,51.60
2019-04-10T19:27:26.617Z,51.80
2019-04-10T19:29:55.261Z,52.00
2019-04-10T19:32:29.974Z,52.10
2019-04-10T19:34:59.438Z,52.50
2019-04-10T19:37:28.429Z,52.90
2019-04-10T19:39:58.378Z,53.10
2019-04-10T19:42:27.150Z,53.70
2019-04-10T19:44:55.636Z,53.50
2019-04-10T19:47:26.321Z,53.80
2019-04-10T19:49:55.126Z,54.30
2019-04-10T19:52:24.407Z,54.80
2019-04-10T19:54:53.391Z,55.60
2019-04-10T19:57:22.263Z,55.60
2019-04-10T19:59:52.237Z,55.80
2019-04-10T20:02:20.817Z,55.70
2019-04-10T20:04:50.546Z,55.60
2019-04-10T20:07:19.138Z,55.80
2019-04-10T20:09:48.572Z,56.30
2019-04-10T20:12:18.122Z,56.60
2019-04-10T20:14:46.683Z,56.30
2019-04-10T20:17:15.634Z,56.40
2019-04-10T20:19:44.231Z,56.70
2019-04-10T20:22:12.975Z,56.30
2019-04-10T20:24:41.413Z,56.40
2019-04-10T20:27:09.990Z,56.00
2019-04-10T20:29:41.918Z,56.30
2019-04-10T20:32:11.496Z,56.30
2019-04-10T20:34:40.497Z,56.50
2019-04-10T20:37:10.294Z,56.70
2019-04-10T20:39:39.242Z,56.70
2019-04-10T20:42:07.817Z,56.70
2019-04-10T20:44:36.567Z,57.00
2019-04-10T20:47:05.187Z,56.80
2019-04-10T20:49:34.956Z,57.20
2019-04-10T20:52:04.213Z,57.20
2019-04-10T20:54:32.976Z,57.40
2019-04-10T20:57:01.434Z,57.40
2019-04-10T20:59:30.580Z,57.90
2019-04-10T21:01:59.912Z,58.20
2019-04-10T21:04:29.605Z,58.30
2019-04-10T21:06:58.607Z,58.10
2019-04-10T21:09:27.783Z,58.20
2019-04-10T21:12:18.081Z,59.10
2019-04-10T21:14:45.886Z,58.10
2019-04-10T21:17:17.076Z,58.40
2019-04-10T21:19:45.507Z,58.40
2019-04-10T21:22:14.000Z,58.80
2019-04-10T21:24:43.418Z,58.90
2019-04-10T21:27:13.196Z,58.90
2019-04-10T21:29:46.522Z,59.20
2019-04-10T21:32:22.540Z,59.60
2019-04-10T21:34:53.545Z,59.90
2019-04-10T21:37:22.331Z,60.10
2019-04-10T21:39:52.206Z,60.20
2019-04-10T21:42:23.578Z,60.00
2019-04-10T21:44:51.354Z,60.30
2019-04-10T21:47:19.832Z,60.40
2019-04-10T21:49:48.469Z,60.20
2019-04-10T21:52:16.983Z,60.40
2019-04-10T21:54:51.111Z,60.60
2019-04-10T21:57:16.090Z,60.90
2019-04-10T22:02:48.697Z,60.90
2019-04-10T22:05:17.418Z,60.90
2019-04-10T22:07:48.239Z,61.00
2019-04-10T22:10:37.269Z,61.90
2019-04-10T22:13:05.914Z,61.90
2019-04-10T22:15:37.212Z,61.70
2019-04-10T22:18:07.154Z,61.50
2019-04-10T22:20:36.077Z,61.20
2019-04-10T22:23:04.723Z,61.40
2019-04-10T22:25:33.192Z,61.30
2019-04-10T22:28:01.641Z,61.40
2019-04-10T22:30:30.072Z,61.50
2019-04-10T22:32:59.726Z,61.70
2019-04-10T22:35:34.028Z,61.50
2019-04-10T22:38:02.676Z,61.80
2019-04-10T22:40:31.714Z,62.10
2019-04-10T22:43:00.172Z,62.00
2019-04-10T22:45:48.691Z,62.00
2019-04-10T22:48:17.243Z,61.80
2019-04-10T22:50:45.679Z,62.10
2019-04-10T22:53:15.086Z,62.10
2019-04-10T22:55:44.408Z,61.80
2019-04-10T22:58:13.123Z,61.80
2019-04-10T23:00:41.813Z,61.70
2019-04-10T23:03:11.445Z,61.50
2019-04-10T23:05:40.656Z,61.80
2019-04-10T23:08:09.459Z,61.50
2019-04-10T23:10:37.979Z,62.10
2019-04-10T23:13:08.738Z,62.10
2019-04-10T23:15:37.739Z,62.50
2019-04-10T23:18:07.464Z,62.30
2019-04-10T23:20:36.308Z,63.00
2019-04-10T23:23:04.927Z,62.50
2019-04-10T23:25:34.332Z,62.60
2019-04-10T23:28:03.124Z,63.30
2019-04-10T23:30:31.638Z,62.80
2019-04-10T23:33:00.064Z,63.20
2019-04-10T23:35:29.441Z,63.30
2019-04-10T23:37:59.386Z,63.20
2019-04-10T23:40:29.192Z,63.50
2019-04-10T23:43:07.788Z,62.90
2019-04-10T23:45:27.930Z,63.30
2019-04-10T23:47:56.351Z,63.30
2019-04-10T23:50:26.002Z,63.00
2019-04-10T23:52:54.576Z,63.30
2019-04-10T23:55:42.725Z,64.10
2019-04-10T23:58:11.345Z,63.70
